sensor_id;sensor_type;location;lat;lon;timestamp;P1;durP1;ratioP1;P2;durP2;ratioP2
13487;SDS011;6816;48.506;9.050;2023-05-15T00:02:06;3.63;;;3.33;;
13487;SDS011;6816;48.506;9.050;2023-05-15T00:05:07;3.80;;;3.47;;
13487;SDS011;6816;48.506;9.050;2023-05-15T00:08:07;3.20;;;2.90;;
13487;SDS011;6816;48.506;9.050;2023-05-15T00:11:08;3.03;;;2.70;;
13487;SDS011;6816;48.506;9.050;2023-05-15T00:14:09;3.30;;;3.00;;
13487;SDS011;6816;48.506;9.050;2023-05-15T00:17:09;3.10;;;2.80;;
13487;SDS011;6816;48.506;9.050;2023-05-15T00:20:11;2.70;;;2.50;;
13487;SDS011;6816;48.506;9.050;2023-05-15T00:23:12;3.37;;;2.80;;
13487;SDS011;6816;48.506;9.050;2023-05-15T00:26:12;2.53;;;2.33;;
13487;SDS011;6816;48.506;9.050;2023-05-15T00:29:14;3.57;;;2.97;;
13487;SDS011;6816;48.506;9.050;2023-05-15T00:32:15;2.90;;;2.70;;
13487;SDS011;6816;48.506;9.050;2023-05-15T00:35:16;3.67;;;3.30;;
13487;SDS011;6816;48.506;9.050;2023-05-15T00:38:16;4.90;;;3.30;;
13487;SDS011;6816;48.506;9.050;2023-05-15T00:41:17;3.90;;;3.50;;
13487;SDS011;6816;48.506;9.050;2023-05-15T00:44:19;5.43;;;3.60;;
13487;SDS011;6816;48.506;9.050;2023-05-15T00:47:20;4.90;;;4.00;;
13487;SDS011;6816;48.506;9.050;2023-05-15T00:50:22;3.57;;;3.27;;
13487;SDS011;6816;48.506;9.050;2023-05-15T00:53:23;3.70;;;3.40;;
13487;SDS011;6816;48.506;9.050;2023-05-15T00:56:26;3.13;;;2.60;;
13487;SDS011;6816;48.506;9.050;2023-05-15T00:59:31;6.97;;;3.10;;
13487;SDS011;6816;48.506;9.050;2023-05-15T01:02:32;5.90;;;3.13;;
13487;SDS011;6816;48.506;9.050;2023-05-15T01:05:32;3.47;;;2.70;;
13487;SDS011;6816;48.506;9.050;2023-05-15T01:08:37;4.40;;;2.97;;
13487;SDS011;6816;48.506;9.050;2023-05-15T01:11:41;2.67;;;2.47;;
13487;SDS011;6816;48.506;9.050;2023-05-15T01:14:45;3.03;;;2.80;;
13487;SDS011;6816;48.506;9.050;2023-05-15T01:17:46;2.90;;;2.60;;
13487;SDS011;6816;48.506;9.050;2023-05-15T01:27:55;2.67;;;2.47;;
13487;SDS011;6816;48.506;9.050;2023-05-15T01:30:58;2.37;;;2.17;;
13487;SDS011;6816;48.506;9.050;2023-05-15T01:34:09;3.13;;;2.80;;
13487;SDS011;6816;48.506;9.050;2023-05-15T01:37:10;3.80;;;3.50;;
13487;SDS011;6816;48.506;9.050;2023-05-15T01:40:13;3.90;;;3.27;;
13487;SDS011;6816;48.506;9.050;2023-05-15T01:43:17;3.10;;;2.80;;
13487;SDS011;6816;48.506;9.050;2023-05-15T01:46:22;3.47;;;3.17;;
13487;SDS011;6816;48.506;9.050;2023-05-15T01:49:27;4.40;;;3.90;;
13487;SDS011;6816;48.506;9.050;2023-05-15T01:52:34;4.27;;;3.67;;
13487;SDS011;6816;48.506;9.050;2023-05-15T01:55:39;4.93;;;4.43;;
13487;SDS011;6816;48.506;9.050;2023-05-15T01:58:40;4.40;;;4.00;;
13487;SDS011;6816;48.506;9.050;2023-05-15T02:01:42;4.20;;;3.80;;
13487;SDS011;6816;48.506;9.050;2023-05-15T02:04:44;5.00;;;4.10;;
13487;SDS011;6816;48.506;9.050;2023-05-15T02:07:46;6.90;;;4.30;;
13487;SDS011;6816;48.506;9.050;2023-05-15T02:10:48;4.30;;;3.93;;
13487;SDS011;6816;48.506;9.050;2023-05-15T02:13:49;4.60;;;4.20;;
13487;SDS011;6816;48.506;9.050;2023-05-15T02:16:51;5.40;;;3.97;;
13487;SDS011;6816;48.506;9.050;2023-05-15T02:19:52;4.67;;;4.27;;
13487;SDS011;6816;48.506;9.050;2023-05-15T02:22:53;4.13;;;3.73;;
13487;SDS011;6816;48.506;9.050;2023-05-15T02:26:11;4.60;;;4.20;;
13487;SDS011;6816;48.506;9.050;2023-05-15T02:39:00;3.63;;;3.33;;
13487;SDS011;6816;48.506;9.050;2023-05-15T02:42:02;4.27;;;3.87;;
13487;SDS011;6816;48.506;9.050;2023-05-15T02:45:04;5.30;;;3.60;;
13487;SDS011;6816;48.506;9.050;2023-05-15T02:48:06;5.27;;;3.97;;
13487;SDS011;6816;48.506;9.050;2023-05-15T02:51:08;6.60;;;3.87;;
13487;SDS011;6816;48.506;9.050;2023-05-15T02:54:10;4.60;;;3.87;;
13487;SDS011;6816;48.506;9.050;2023-05-15T02:57:10;7.17;;;4.17;;
13487;SDS011;6816;48.506;9.050;2023-05-15T03:00:11;3.80;;;3.50;;
13487;SDS011;6816;48.506;9.050;2023-05-15T03:03:12;3.60;;;3.30;;
13487;SDS011;6816;48.506;9.050;2023-05-15T03:06:13;3.67;;;3.37;;
13487;SDS011;6816;48.506;9.050;2023-05-15T03:09:14;4.13;;;3.73;;
13487;SDS011;6816;48.506;9.050;2023-05-15T03:12:15;4.20;;;3.80;;
13487;SDS011;6816;48.506;9.050;2023-05-15T03:15:16;4.67;;;3.80;;
13487;SDS011;6816;48.506;9.050;2023-05-15T03:18:17;4.10;;;3.77;;
13487;SDS011;6816;48.506;9.050;2023-05-15T03:21:18;3.90;;;3.60;;
13487;SDS011;6816;48.506;9.050;2023-05-15T03:24:19;4.00;;;3.70;;
13487;SDS011;6816;48.506;9.050;2023-05-15T03:27:20;4.20;;;3.80;;
13487;SDS011;6816;48.506;9.050;2023-05-15T03:30:20;3.60;;;3.30;;
13487;SDS011;6816;48.506;9.050;2023-05-15T03:33:21;3.73;;;3.37;;
13487;SDS011;6816;48.506;9.050;2023-05-15T03:36:22;4.77;;;4.07;;
13487;SDS011;6816;48.506;9.050;2023-05-15T03:39:22;4.03;;;3.63;;
13487;SDS011;6816;48.506;9.050;2023-05-15T03:42:23;4.97;;;4.03;;
13487;SDS011;6816;48.506;9.050;2023-05-15T03:45:24;3.97;;;3.67;;
13487;SDS011;6816;48.506;9.050;2023-05-15T03:48:25;4.43;;;4.03;;
13487;SDS011;6816;48.506;9.050;2023-05-15T03:51:25;4.40;;;4.00;;
13487;SDS011;6816;48.506;9.050;2023-05-15T03:54:26;3.90;;;3.53;;
13487;SDS011;6816;48.506;9.050;2023-05-15T03:57:26;4.30;;;3.90;;
13487;SDS011;6816;48.506;9.050;2023-05-15T04:00:27;4.17;;;3.77;;
13487;SDS011;6816;48.506;9.050;2023-05-15T04:03:28;4.37;;;3.97;;
13487;SDS011;6816;48.506;9.050;2023-05-15T04:06:29;4.87;;;4.30;;
13487;SDS011;6816;48.506;9.050;2023-05-15T04:09:30;4.37;;;3.97;;
13487;SDS011;6816;48.506;9.050;2023-05-15T04:12:31;4.10;;;3.80;;
13487;SDS011;6816;48.506;9.050;2023-05-15T04:15:33;3.70;;;3.40;;
13487;SDS011;6816;48.506;9.050;2023-05-15T04:18:34;4.60;;;4.20;;
13487;SDS011;6816;48.506;9.050;2023-05-15T04:21:34;4.63;;;4.23;;
13487;SDS011;6816;48.506;9.050;2023-05-15T04:24:35;4.57;;;4.17;;
13487;SDS011;6816;48.506;9.050;2023-05-15T04:27:36;4.70;;;4.00;;
13487;SDS011;6816;48.506;9.050;2023-05-15T04:30:37;4.53;;;4.13;;
13487;SDS011;6816;48.506;9.050;2023-05-15T04:33:38;4.60;;;4.17;;
13487;SDS011;6816;48.506;9.050;2023-05-15T04:36:38;4.30;;;3.90;;
13487;SDS011;6816;48.506;9.050;2023-05-15T04:39:39;4.93;;;4.10;;
13487;SDS011;6816;48.506;9.050;2023-05-15T04:42:40;3.70;;;3.40;;
13487;SDS011;6816;48.506;9.050;2023-05-15T04:45:41;4.27;;;3.87;;
13487;SDS011;6816;48.506;9.050;2023-05-15T04:48:41;4.73;;;4.17;;
13487;SDS011;6816;48.506;9.050;2023-05-15T04:51:42;4.30;;;3.90;;
13487;SDS011;6816;48.506;9.050;2023-05-15T04:54:43;4.03;;;3.73;;
13487;SDS011;6816;48.506;9.050;2023-05-15T04:57:45;4.63;;;4.23;;
13487;SDS011;6816;48.506;9.050;2023-05-15T05:00:46;4.30;;;3.90;;
13487;SDS011;6816;48.506;9.050;2023-05-15T05:03:47;4.33;;;3.60;;
13487;SDS011;6816;48.506;9.050;2023-05-15T05:06:48;4.77;;;4.37;;
13487;SDS011;6816;48.506;9.050;2023-05-15T05:09:49;4.30;;;3.90;;
13487;SDS011;6816;48.506;9.050;2023-05-15T05:12:50;5.27;;;4.20;;
13487;SDS011;6816;48.506;9.050;2023-05-15T05:15:50;4.13;;;3.73;;
13487;SDS011;6816;48.506;9.050;2023-05-15T05:18:51;4.53;;;4.13;;
13487;SDS011;6816;48.506;9.050;2023-05-15T05:21:52;5.50;;;4.57;;
13487;SDS011;6816;48.506;9.050;2023-05-15T05:24:53;5.17;;;4.67;;
13487;SDS011;6816;48.506;9.050;2023-05-15T05:27:53;5.00;;;4.60;;
13487;SDS011;6816;48.506;9.050;2023-05-15T05:30:54;5.53;;;4.93;;
13487;SDS011;6816;48.506;9.050;2023-05-15T05:33:54;5.43;;;4.93;;
13487;SDS011;6816;48.506;9.050;2023-05-15T05:36:55;4.87;;;4.47;;
13487;SDS011;6816;48.506;9.050;2023-05-15T05:39:56;5.87;;;4.50;;
13487;SDS011;6816;48.506;9.050;2023-05-15T05:43:00;5.93;;;4.80;;
13487;SDS011;6816;48.506;9.050;2023-05-15T05:46:01;4.93;;;4.53;;
13487;SDS011;6816;48.506;9.050;2023-05-15T05:49:02;4.23;;;3.83;;
13487;SDS011;6816;48.506;9.050;2023-05-15T05:52:06;5.17;;;4.33;;
13487;SDS011;6816;48.506;9.050;2023-05-15T05:55:07;4.77;;;4.37;;
13487;SDS011;6816;48.506;9.050;2023-05-15T05:58:08;5.10;;;4.60;;
13487;SDS011;6816;48.506;9.050;2023-05-15T06:01:09;4.77;;;4.37;;
13487;SDS011;6816;48.506;9.050;2023-05-15T06:04:09;4.83;;;4.33;;
13487;SDS011;6816;48.506;9.050;2023-05-15T06:07:10;4.43;;;4.03;;
13487;SDS011;6816;48.506;9.050;2023-05-15T06:10:11;4.50;;;4.10;;
13487;SDS011;6816;48.506;9.050;2023-05-15T06:13:12;4.77;;;4.27;;
13487;SDS011;6816;48.506;9.050;2023-05-15T06:16:14;4.40;;;4.00;;
13487;SDS011;6816;48.506;9.050;2023-05-15T06:19:14;4.60;;;4.20;;
13487;SDS011;6816;48.506;9.050;2023-05-15T06:22:15;4.40;;;4.10;;
13487;SDS011;6816;48.506;9.050;2023-05-15T06:25:16;4.90;;;4.50;;
13487;SDS011;6816;48.506;9.050;2023-05-15T06:28:17;5.30;;;4.80;;
13487;SDS011;6816;48.506;9.050;2023-05-15T06:31:18;4.53;;;4.13;;
13487;SDS011;6816;48.506;9.050;2023-05-15T06:34:18;4.23;;;3.83;;
13487;SDS011;6816;48.506;9.050;2023-05-15T06:37:19;4.13;;;3.73;;
13487;SDS011;6816;48.506;9.050;2023-05-15T06:40:20;4.60;;;4.20;;
13487;SDS011;6816;48.506;9.050;2023-05-15T06:43:20;6.03;;;3.90;;
13487;SDS011;6816;48.506;9.050;2023-05-15T06:46:21;4.53;;;4.10;;
13487;SDS011;6816;48.506;9.050;2023-05-15T06:49:22;4.37;;;3.83;;
13487;SDS011;6816;48.506;9.050;2023-05-15T06:52:23;5.43;;;4.33;;
13487;SDS011;6816;48.506;9.050;2023-05-15T06:55:24;3.93;;;3.63;;
13487;SDS011;6816;48.506;9.050;2023-05-15T06:58:24;4.30;;;4.00;;
13487;SDS011;6816;48.506;9.050;2023-05-15T07:01:25;6.13;;;4.53;;
13487;SDS011;6816;48.506;9.050;2023-05-15T07:04:26;5.13;;;4.70;;
13487;SDS011;6816;48.506;9.050;2023-05-15T07:07:26;4.90;;;4.50;;
13487;SDS011;6816;48.506;9.050;2023-05-15T07:10:27;4.97;;;4.57;;
13487;SDS011;6816;48.506;9.050;2023-05-15T07:13:28;4.93;;;4.53;;
13487;SDS011;6816;48.506;9.050;2023-05-15T07:16:28;5.47;;;4.97;;
13487;SDS011;6816;48.506;9.050;2023-05-15T07:19:30;5.47;;;5.03;;
13487;SDS011;6816;48.506;9.050;2023-05-15T07:22:30;5.33;;;4.77;;
13487;SDS011;6816;48.506;9.050;2023-05-15T07:25:31;5.60;;;5.10;;
13487;SDS011;6816;48.506;9.050;2023-05-15T07:28:31;5.10;;;4.70;;
13487;SDS011;6816;48.506;9.050;2023-05-15T07:31:32;5.27;;;4.87;;
13487;SDS011;6816;48.506;9.050;2023-05-15T07:34:33;5.30;;;4.90;;
13487;SDS011;6816;48.506;9.050;2023-05-15T07:37:33;5.30;;;4.80;;
13487;SDS011;6816;48.506;9.050;2023-05-15T07:40:34;5.10;;;4.60;;
13487;SDS011;6816;48.506;9.050;2023-05-15T07:43:35;5.10;;;4.70;;
13487;SDS011;6816;48.506;9.050;2023-05-15T07:46:35;4.78;;;4.38;;
13487;SDS011;6816;48.506;9.050;2023-05-15T07:49:37;5.10;;;4.60;;
13487;SDS011;6816;48.506;9.050;2023-05-15T07:52:38;4.75;;;4.35;;
13487;SDS011;6816;48.506;9.050;2023-05-15T07:55:39;4.88;;;4.47;;
13487;SDS011;6816;48.506;9.050;2023-05-15T07:58:40;4.78;;;4.45;;
13487;SDS011;6816;48.506;9.050;2023-05-15T08:01:41;4.93;;;4.53;;
13487;SDS011;6816;48.506;9.050;2023-05-15T08:04:41;4.70;;;4.30;;
13487;SDS011;6816;48.506;9.050;2023-05-15T08:07:42;4.90;;;4.50;;
13487;SDS011;6816;48.506;9.050;2023-05-15T08:10:43;6.78;;;4.88;;
13487;SDS011;6816;48.506;9.050;2023-05-15T08:13:43;5.78;;;4.45;;
13487;SDS011;6816;48.506;9.050;2023-05-15T08:16:44;4.60;;;4.10;;
13487;SDS011;6816;48.506;9.050;2023-05-15T08:19:45;4.47;;;4.18;;
13487;SDS011;6816;48.506;9.050;2023-05-15T08:22:46;5.05;;;4.63;;
13487;SDS011;6816;48.506;9.050;2023-05-15T08:25:46;4.32;;;4.00;;
13487;SDS011;6816;48.506;9.050;2023-05-15T08:28:47;4.47;;;4.07;;
13487;SDS011;6816;48.506;9.050;2023-05-15T08:31:48;4.28;;;3.97;;
13487;SDS011;6816;48.506;9.050;2023-05-15T08:34:48;4.38;;;4.03;;
13487;SDS011;6816;48.506;9.050;2023-05-15T08:37:49;4.50;;;4.20;;
13487;SDS011;6816;48.506;9.050;2023-05-15T08:40:50;4.78;;;4.38;;
13487;SDS011;6816;48.506;9.050;2023-05-15T08:43:53;4.95;;;4.40;;
13487;SDS011;6816;48.506;9.050;2023-05-15T08:46:56;4.95;;;4.55;;
13487;SDS011;6816;48.506;9.050;2023-05-15T08:50:03;5.00;;;4.60;;
13487;SDS011;6816;48.506;9.050;2023-05-15T08:53:06;4.40;;;4.00;;
13487;SDS011;6816;48.506;9.050;2023-05-15T08:56:07;4.30;;;3.90;;
13487;SDS011;6816;48.506;9.050;2023-05-15T08:59:08;4.50;;;4.20;;
13487;SDS011;6816;48.506;9.050;2023-05-15T09:02:09;4.30;;;3.97;;
13487;SDS011;6816;48.506;9.050;2023-05-15T09:05:10;4.57;;;4.25;;
13487;SDS011;6816;48.506;9.050;2023-05-15T09:08:11;3.90;;;3.60;;
13487;SDS011;6816;48.506;9.050;2023-05-15T09:11:12;4.38;;;3.83;;
13487;SDS011;6816;48.506;9.050;2023-05-15T09:14:14;4.55;;;4.15;;
13487;SDS011;6816;48.506;9.050;2023-05-15T09:17:14;4.20;;;3.90;;
13487;SDS011;6816;48.506;9.050;2023-05-15T09:23:28;4.28;;;3.88;;
13487;SDS011;6816;48.506;9.050;2023-05-15T09:26:29;4.00;;;3.70;;
13487;SDS011;6816;48.506;9.050;2023-05-15T09:29:30;3.97;;;3.70;;
13487;SDS011;6816;48.506;9.050;2023-05-15T09:32:31;4.18;;;3.70;;
13487;SDS011;6816;48.506;9.050;2023-05-15T09:35:33;4.00;;;3.60;;
13487;SDS011;6816;48.506;9.050;2023-05-15T09:38:39;3.28;;;3.08;;
13487;SDS011;6816;48.506;9.050;2023-05-15T09:41:41;3.95;;;3.65;;
13487;SDS011;6816;48.506;9.050;2023-05-15T09:44:44;4.85;;;3.80;;
13487;SDS011;6816;48.506;9.050;2023-05-15T09:47:45;3.90;;;3.60;;
13487;SDS011;6816;48.506;9.050;2023-05-15T09:50:46;4.13;;;3.72;;
13487;SDS011;6816;48.506;9.050;2023-05-15T09:53:47;4.07;;;3.78;;
13487;SDS011;6816;48.506;9.050;2023-05-15T09:56:50;4.25;;;3.95;;
13487;SDS011;6816;48.506;9.050;2023-05-15T09:59:51;4.15;;;3.85;;
13487;SDS011;6816;48.506;9.050;2023-05-15T10:02:51;3.80;;;3.50;;
13487;SDS011;6816;48.506;9.050;2023-05-15T10:05:58;3.92;;;3.63;;
13487;SDS011;6816;48.506;9.050;2023-05-15T10:09:01;4.03;;;3.72;;
13487;SDS011;6816;48.506;9.050;2023-05-15T10:12:02;4.43;;;3.95;;
13487;SDS011;6816;48.506;9.050;2023-05-15T10:15:04;4.35;;;3.95;;
13487;SDS011;6816;48.506;9.050;2023-05-15T10:18:05;7.40;;;4.75;;
13487;SDS011;6816;48.506;9.050;2023-05-15T10:21:08;6.00;;;4.47;;
13487;SDS011;6816;48.506;9.050;2023-05-15T10:24:09;4.72;;;3.85;;
13487;SDS011;6816;48.506;9.050;2023-05-15T10:27:10;4.20;;;3.80;;
13487;SDS011;6816;48.506;9.050;2023-05-15T10:30:11;4.10;;;3.80;;
13487;SDS011;6816;48.506;9.050;2023-05-15T10:33:15;4.80;;;4.40;;
13487;SDS011;6816;48.506;9.050;2023-05-15T10:36:18;4.60;;;4.20;;
13487;SDS011;6816;48.506;9.050;2023-05-15T10:39:19;4.93;;;3.83;;
13487;SDS011;6816;48.506;9.050;2023-05-15T10:42:21;3.77;;;3.47;;
13487;SDS011;6816;48.506;9.050;2023-05-15T10:45:25;3.70;;;3.40;;
13487;SDS011;6816;48.506;9.050;2023-05-15T10:48:26;4.10;;;3.80;;
13487;SDS011;6816;48.506;9.050;2023-05-15T10:51:28;4.43;;;4.03;;
13487;SDS011;6816;48.506;9.050;2023-05-15T10:54:30;5.23;;;4.07;;
13487;SDS011;6816;48.506;9.050;2023-05-15T10:57:32;5.00;;;4.60;;
13487;SDS011;6816;48.506;9.050;2023-05-15T11:00:36;4.20;;;3.90;;
13487;SDS011;6816;48.506;9.050;2023-05-15T11:03:41;5.77;;;5.00;;
13487;SDS011;6816;48.506;9.050;2023-05-15T11:06:47;4.72;;;4.32;;
13487;SDS011;6816;48.506;9.050;2023-05-15T11:09:49;4.70;;;4.37;;
13487;SDS011;6816;48.506;9.050;2023-05-15T11:13:00;6.23;;;4.60;;
13487;SDS011;6816;48.506;9.050;2023-05-15T11:16:01;4.57;;;4.17;;
13487;SDS011;6816;48.506;9.050;2023-05-15T11:19:02;4.80;;;4.40;;
13487;SDS011;6816;48.506;9.050;2023-05-15T11:22:19;4.80;;;4.20;;
13487;SDS011;6816;48.506;9.050;2023-05-15T11:25:20;4.77;;;3.90;;
13487;SDS011;6816;48.506;9.050;2023-05-15T11:28:28;3.80;;;3.50;;
13487;SDS011;6816;48.506;9.050;2023-05-15T11:31:29;3.83;;;3.17;;
13487;SDS011;6816;48.506;9.050;2023-05-15T11:34:31;5.30;;;3.70;;
13487;SDS011;6816;48.506;9.050;2023-05-15T11:37:35;4.67;;;4.23;;
13487;SDS011;6816;48.506;9.050;2023-05-15T11:40:48;6.53;;;4.07;;
13487;SDS011;6816;48.506;9.050;2023-05-15T11:43:54;4.17;;;3.73;;
13487;SDS011;6816;48.506;9.050;2023-05-15T11:46:56;3.63;;;3.33;;
13487;SDS011;6816;48.506;9.050;2023-05-15T11:49:57;4.07;;;3.70;;
13487;SDS011;6816;48.506;9.050;2023-05-15T11:53:02;5.33;;;4.37;;
13487;SDS011;6816;48.506;9.050;2023-05-15T11:56:06;3.90;;;3.60;;
13487;SDS011;6816;48.506;9.050;2023-05-15T11:59:12;3.60;;;3.30;;
13487;SDS011;6816;48.506;9.050;2023-05-15T12:02:15;4.80;;;3.80;;
13487;SDS011;6816;48.506;9.050;2023-05-15T12:05:16;4.00;;;3.70;;
13487;SDS011;6816;48.506;9.050;2023-05-15T12:08:17;4.13;;;3.83;;
13487;SDS011;6816;48.506;9.050;2023-05-15T12:11:22;4.15;;;3.55;;
13487;SDS011;6816;48.506;9.050;2023-05-15T12:14:29;4.77;;;4.37;;
13487;SDS011;6816;48.506;9.050;2023-05-15T12:17:31;4.30;;;3.90;;
13487;SDS011;6816;48.506;9.050;2023-05-15T12:20:35;4.00;;;3.70;;
13487;SDS011;6816;48.506;9.050;2023-05-15T12:23:37;4.28;;;3.95;;
13487;SDS011;6816;48.506;9.050;2023-05-15T12:26:38;3.92;;;3.63;;
13487;SDS011;6816;48.506;9.050;2023-05-15T12:29:39;3.60;;;3.30;;
13487;SDS011;6816;48.506;9.050;2023-05-15T12:32:40;3.70;;;3.40;;
13487;SDS011;6816;48.506;9.050;2023-05-15T12:35:42;3.10;;;2.90;;
13487;SDS011;6816;48.506;9.050;2023-05-15T12:38:48;3.20;;;3.00;;
13487;SDS011;6816;48.506;9.050;2023-05-15T12:41:49;3.70;;;3.40;;
13487;SDS011;6816;48.506;9.050;2023-05-15T12:44:53;3.73;;;3.43;;
13487;SDS011;6816;48.506;9.050;2023-05-15T12:47:56;3.53;;;3.33;;
13487;SDS011;6816;48.506;9.050;2023-05-15T12:51:03;3.77;;;3.47;;
13487;SDS011;6816;48.506;9.050;2023-05-15T12:54:05;4.20;;;3.90;;
13487;SDS011;6816;48.506;9.050;2023-05-15T12:57:15;3.70;;;3.40;;
13487;SDS011;6816;48.506;9.050;2023-05-15T13:00:15;3.28;;;2.97;;
13487;SDS011;6816;48.506;9.050;2023-05-15T13:03:18;2.92;;;2.72;;
13487;SDS011;6816;48.506;9.050;2023-05-15T13:06:21;2.88;;;2.60;;
13487;SDS011;6816;48.506;9.050;2023-05-15T13:09:22;3.97;;;2.97;;
13487;SDS011;6816;48.506;9.050;2023-05-15T13:12:22;3.30;;;3.10;;
13487;SDS011;6816;48.506;9.050;2023-05-15T13:15:33;3.00;;;2.80;;
13487;SDS011;6816;48.506;9.050;2023-05-15T13:18:36;3.20;;;3.00;;
13487;SDS011;6816;48.506;9.050;2023-05-15T13:21:37;3.15;;;2.90;;
13487;SDS011;6816;48.506;9.050;2023-05-15T13:24:38;3.50;;;3.20;;
13487;SDS011;6816;48.506;9.050;2023-05-15T13:27:39;4.63;;;3.50;;
13487;SDS011;6816;48.506;9.050;2023-05-15T13:30:40;4.25;;;3.42;;
13487;SDS011;6816;48.506;9.050;2023-05-15T13:33:41;4.32;;;3.55;;
13487;SDS011;6816;48.506;9.050;2023-05-15T13:36:42;4.13;;;3.20;;
13487;SDS011;6816;48.506;9.050;2023-05-15T13:39:43;3.35;;;3.15;;
13487;SDS011;6816;48.506;9.050;2023-05-15T13:42:44;4.10;;;3.80;;
13487;SDS011;6816;48.506;9.050;2023-05-15T13:45:44;4.20;;;3.83;;
13487;SDS011;6816;48.506;9.050;2023-05-15T13:48:45;3.90;;;3.60;;
13487;SDS011;6816;48.506;9.050;2023-05-15T13:51:46;3.47;;;3.28;;
13487;SDS011;6816;48.506;9.050;2023-05-15T13:54:46;3.70;;;3.40;;
13487;SDS011;6816;48.506;9.050;2023-05-15T13:57:47;3.42;;;3.08;;
13487;SDS011;6816;48.506;9.050;2023-05-15T14:00:47;3.75;;;3.55;;
13487;SDS011;6816;48.506;9.050;2023-05-15T14:03:48;3.28;;;3.08;;
13487;SDS011;6816;48.506;9.050;2023-05-15T14:06:49;3.40;;;3.10;;
13487;SDS011;6816;48.506;9.050;2023-05-15T14:09:50;3.03;;;2.83;;
13487;SDS011;6816;48.506;9.050;2023-05-15T14:12:51;3.33;;;3.08;;
13487;SDS011;6816;48.506;9.050;2023-05-15T14:15:52;3.08;;;2.88;;
13487;SDS011;6816;48.506;9.050;2023-05-15T14:18:52;2.95;;;2.75;;
13487;SDS011;6816;48.506;9.050;2023-05-15T14:21:53;3.20;;;3.00;;
13487;SDS011;6816;48.506;9.050;2023-05-15T14:24:53;3.10;;;2.90;;
13487;SDS011;6816;48.506;9.050;2023-05-15T14:27:54;3.40;;;2.83;;
13487;SDS011;6816;48.506;9.050;2023-05-15T14:30:55;2.88;;;2.67;;
13487;SDS011;6816;48.506;9.050;2023-05-15T14:33:55;2.78;;;2.58;;
13487;SDS011;6816;48.506;9.050;2023-05-15T14:36:56;2.55;;;2.42;;
13487;SDS011;6816;48.506;9.050;2023-05-15T14:39:57;2.45;;;2.33;;
13487;SDS011;6816;48.506;9.050;2023-05-15T14:43:00;2.50;;;2.30;;
13487;SDS011;6816;48.506;9.050;2023-05-15T14:46:00;2.33;;;2.17;;
13487;SDS011;6816;48.506;9.050;2023-05-15T14:49:01;2.58;;;2.38;;
13487;SDS011;6816;48.506;9.050;2023-05-15T14:52:02;3.95;;;2.05;;
13487;SDS011;6816;48.506;9.050;2023-05-15T14:55:05;2.47;;;2.28;;
13487;SDS011;6816;48.506;9.050;2023-05-15T14:58:06;2.30;;;2.05;;
13487;SDS011;6816;48.506;9.050;2023-05-15T15:01:10;8.93;;;7.65;;
13487;SDS011;6816;48.506;9.050;2023-05-15T15:04:10;5.65;;;5.15;;
13487;SDS011;6816;48.506;9.050;2023-05-15T15:07:11;3.90;;;3.60;;
13487;SDS011;6816;48.506;9.050;2023-05-15T15:10:12;3.92;;;3.50;;
13487;SDS011;6816;48.506;9.050;2023-05-15T15:13:12;3.38;;;3.15;;
13487;SDS011;6816;48.506;9.050;2023-05-15T15:16:13;5.35;;;4.85;;
13487;SDS011;6816;48.506;9.050;2023-05-15T15:19:14;7.15;;;5.68;;
13487;SDS011;6816;48.506;9.050;2023-05-15T15:22:15;4.07;;;3.22;;
13487;SDS011;6816;48.506;9.050;2023-05-15T15:25:15;2.60;;;2.40;;
13487;SDS011;6816;48.506;9.050;2023-05-15T15:28:17;2.25;;;2.15;;
13487;SDS011;6816;48.506;9.050;2023-05-15T15:31:17;2.15;;;1.98;;
13487;SDS011;6816;48.506;9.050;2023-05-15T15:34:18;2.00;;;1.80;;
13487;SDS011;6816;48.506;9.050;2023-05-15T15:37:19;1.98;;;1.88;;
13487;SDS011;6816;48.506;9.050;2023-05-15T15:40:20;1.77;;;1.67;;
13487;SDS011;6816;48.506;9.050;2023-05-15T15:43:22;1.90;;;1.80;;
13487;SDS011;6816;48.506;9.050;2023-05-15T15:46:23;1.83;;;1.73;;
13487;SDS011;6816;48.506;9.050;2023-05-15T15:49:23;3.10;;;2.90;;
13487;SDS011;6816;48.506;9.050;2023-05-15T15:52:24;2.60;;;2.40;;
13487;SDS011;6816;48.506;9.050;2023-05-15T15:55:25;2.30;;;2.20;;
13487;SDS011;6816;48.506;9.050;2023-05-15T15:58:26;1.80;;;1.70;;
13487;SDS011;6816;48.506;9.050;2023-05-15T16:01:26;2.00;;;1.70;;
13487;SDS011;6816;48.506;9.050;2023-05-15T16:04:27;2.03;;;1.83;;
13487;SDS011;6816;48.506;9.050;2023-05-15T16:07:28;2.20;;;2.08;;
13487;SDS011;6816;48.506;9.050;2023-05-15T16:10:28;2.55;;;2.35;;
13487;SDS011;6816;48.506;9.050;2023-05-15T16:13:29;2.85;;;2.65;;
13487;SDS011;6816;48.506;9.050;2023-05-15T16:16:30;2.50;;;2.30;;
13487;SDS011;6816;48.506;9.050;2023-05-15T16:19:30;2.70;;;2.50;;
13487;SDS011;6816;48.506;9.050;2023-05-15T16:22:31;2.95;;;2.65;;
13487;SDS011;6816;48.506;9.050;2023-05-15T16:25:31;2.85;;;2.28;;
13487;SDS011;6816;48.506;9.050;2023-05-15T16:28:32;2.80;;;2.60;;
13487;SDS011;6816;48.506;9.050;2023-05-15T16:31:34;2.70;;;2.50;;
13487;SDS011;6816;48.506;9.050;2023-05-15T16:34:35;3.70;;;2.70;;
13487;SDS011;6816;48.506;9.050;2023-05-15T16:37:36;3.22;;;2.92;;
13487;SDS011;6816;48.506;9.050;2023-05-15T16:40:37;3.57;;;3.27;;
13487;SDS011;6816;48.506;9.050;2023-05-15T16:43:37;4.57;;;3.20;;
13487;SDS011;6816;48.506;9.050;2023-05-15T16:46:38;3.80;;;3.13;;
13487;SDS011;6816;48.506;9.050;2023-05-15T16:49:39;4.90;;;3.63;;
13487;SDS011;6816;48.506;9.050;2023-05-15T16:52:40;6.90;;;4.13;;
13487;SDS011;6816;48.506;9.050;2023-05-15T16:55:47;4.57;;;4.13;;
13487;SDS011;6816;48.506;9.050;2023-05-15T16:58:48;4.33;;;3.93;;
13487;SDS011;6816;48.506;9.050;2023-05-15T17:01:49;5.30;;;4.80;;
13487;SDS011;6816;48.506;9.050;2023-05-15T17:04:50;4.90;;;4.40;;
13487;SDS011;6816;48.506;9.050;2023-05-15T17:07:52;4.63;;;4.27;;
13487;SDS011;6816;48.506;9.050;2023-05-15T17:10:52;6.87;;;5.17;;
13487;SDS011;6816;48.506;9.050;2023-05-15T17:13:53;5.10;;;4.70;;
13487;SDS011;6816;48.506;9.050;2023-05-15T17:16:54;5.63;;;5.07;;
13487;SDS011;6816;48.506;9.050;2023-05-15T17:19:54;5.20;;;4.70;;
13487;SDS011;6816;48.506;9.050;2023-05-15T17:22:55;5.53;;;5.03;;
13487;SDS011;6816;48.506;9.050;2023-05-15T17:25:57;5.83;;;5.13;;
13487;SDS011;6816;48.506;9.050;2023-05-15T17:28:57;5.37;;;4.87;;
13487;SDS011;6816;48.506;9.050;2023-05-15T17:31:58;6.10;;;5.20;;
13487;SDS011;6816;48.506;9.050;2023-05-15T17:34:58;5.83;;;5.33;;
13487;SDS011;6816;48.506;9.050;2023-05-15T17:37:59;6.00;;;5.40;;
13487;SDS011;6816;48.506;9.050;2023-05-15T17:41:00;5.77;;;5.20;;
13487;SDS011;6816;48.506;9.050;2023-05-15T17:44:01;5.73;;;5.13;;
13487;SDS011;6816;48.506;9.050;2023-05-15T17:47:01;7.83;;;4.73;;
13487;SDS011;6816;48.506;9.050;2023-05-15T17:50:02;5.63;;;5.17;;
13487;SDS011;6816;48.506;9.050;2023-05-15T17:53:06;5.40;;;4.90;;
13487;SDS011;6816;48.506;9.050;2023-05-15T17:56:06;5.17;;;4.77;;
13487;SDS011;6816;48.506;9.050;2023-05-15T17:59:07;5.17;;;4.77;;
13487;SDS011;6816;48.506;9.050;2023-05-15T18:02:08;4.97;;;4.57;;
13487;SDS011;6816;48.506;9.050;2023-05-15T18:05:08;5.07;;;4.57;;
13487;SDS011;6816;48.506;9.050;2023-05-15T18:08:09;5.07;;;4.67;;
13487;SDS011;6816;48.506;9.050;2023-05-15T18:11:10;5.43;;;4.93;;
13487;SDS011;6816;48.506;9.050;2023-05-15T18:14:11;4.97;;;4.57;;
13487;SDS011;6816;48.506;9.050;2023-05-15T18:17:11;5.20;;;4.70;;
13487;SDS011;6816;48.506;9.050;2023-05-15T18:20:12;5.30;;;4.60;;
13487;SDS011;6816;48.506;9.050;2023-05-15T18:23:13;5.13;;;4.73;;
13487;SDS011;6816;48.506;9.050;2023-05-15T18:26:14;5.07;;;4.30;;
13487;SDS011;6816;48.506;9.050;2023-05-15T18:29:14;5.53;;;4.50;;
13487;SDS011;6816;48.506;9.050;2023-05-15T18:32:15;4.73;;;4.33;;
13487;SDS011;6816;48.506;9.050;2023-05-15T18:35:16;4.60;;;4.20;;
13487;SDS011;6816;48.506;9.050;2023-05-15T18:38:16;4.33;;;4.03;;
13487;SDS011;6816;48.506;9.050;2023-05-15T18:41:17;5.03;;;4.53;;
13487;SDS011;6816;48.506;9.050;2023-05-15T18:44:18;8.70;;;4.53;;
13487;SDS011;6816;48.506;9.050;2023-05-15T18:47:18;4.63;;;4.27;;
13487;SDS011;6816;48.506;9.050;2023-05-15T18:50:20;4.77;;;4.37;;